createdAt,value
2018-05-31T00:01:36.903Z,97697.09
2018-05-31T00:04:03.209Z,97703.71
2018-05-31T00:06:29.523Z,97707.46
2018-05-31T00:08:55.782Z,97702.68
2018-05-31T00:11:22.147Z,97706.27
2018-05-31T00:13:48.362Z,97708.92
2018-05-31T00:16:14.610Z,97706.20
2018-05-31T00:18:40.889Z,97705.22
2018-05-31T00:21:07.159Z,97704.94
2018-05-31T00:23:33.411Z,97710.09
2018-05-31T00:25:59.718Z,97702.66
2018-05-31T00:28:25.998Z,97702.28
2018-05-31T00:30:52.271Z,97696.58
2018-05-31T00:33:18.564Z,97696.02
2018-05-31T00:35:44.813Z,97702.34
2018-05-31T00:38:11.102Z,97701.13
2018-05-31T00:40:37.423Z,97700.38
2018-05-31T00:43:03.702Z,97701.52
2018-05-31T00:45:29.960Z,97696.52
2018-05-31T00:47:56.246Z,97704.44
2018-05-31T00:50:22.526Z,97705.14
2018-05-31T00:52:48.806Z,97704.38
2018-05-31T00:55:15.130Z,97705.75
2018-05-31T00:57:41.415Z,97703.09
2018-05-31T01:00:07.675Z,97703.56
2018-05-31T01:02:33.955Z,97705.03
2018-05-31T01:05:00.231Z,97715.03
2018-05-31T01:07:26.492Z,97715.51
2018-05-31T01:09:52.782Z,97711.41
2018-05-31T01:12:19.044Z,97712.58
2018-05-31T01:14:45.316Z,97706.77
2018-05-31T01:17:11.599Z,97705.80
2018-05-31T01:19:37.865Z,97710.05
2018-05-31T01:22:04.125Z,97713.89
2018-05-31T01:24:30.479Z,97722.25
2018-05-31T01:26:56.739Z,97720.80
2018-05-31T01:29:22.995Z,97726.51
2018-05-31T01:31:49.278Z,97722.99
2018-05-31T01:34:15.524Z,97723.05
2018-05-31T01:36:41.805Z,97726.12
2018-05-31T01:39:08.137Z,97733.90
2018-05-31T01:41:34.427Z,97728.09
2018-05-31T01:44:00.686Z,97732.75
2018-05-31T01:46:26.975Z,97735.66
2018-05-31T01:48:53.218Z,97736.15
2018-05-31T01:51:19.478Z,97735.12
2018-05-31T01:53:45.788Z,97735.20
2018-05-31T01:56:12.046Z,97733.02
2018-05-31T01:58:38.331Z,97727.33
2018-05-31T02:01:04.621Z,97730.74
2018-05-31T02:03:30.874Z,97727.85
2018-05-31T02:05:57.159Z,97729.51
2018-05-31T02:08:23.490Z,97728.29
2018-05-31T02:10:49.768Z,97722.11
2018-05-31T02:13:16.035Z,97727.42
2018-05-31T02:15:42.353Z,97724.55
2018-05-31T02:18:08.611Z,97727.26
2018-05-31T02:20:34.874Z,97724.52
2018-05-31T02:23:01.172Z,97722.11
2018-05-31T02:25:27.422Z,97717.18
2018-05-31T02:27:53.659Z,97723.95
2018-05-31T02:30:19.926Z,97717.23
2018-05-31T02:32:46.182Z,97716.13
2018-05-31T02:35:12.454Z,97705.97
2018-05-31T02:37:38.727Z,97711.06
2018-05-31T02:40:05.003Z,97713.25
2018-05-31T02:42:31.270Z,97705.09
2018-05-31T02:44:57.606Z,97699.76
2018-05-31T02:47:23.873Z,97702.82
2018-05-31T02:49:50.107Z,97700.79
2018-05-31T02:52:16.387Z,97704.72
2018-05-31T02:54:42.635Z,97708.70
2018-05-31T02:57:08.883Z,97709.14
2018-05-31T02:59:35.175Z,97707.64
2018-05-31T03:02:01.448Z,97700.98
2018-05-31T03:04:27.709Z,97695.80
2018-05-31T03:06:54.011Z,97698.03
2018-05-31T03:09:20.254Z,97690.60
2018-05-31T03:11:46.507Z,97698.45
2018-05-31T03:14:12.790Z,97704.36
2018-05-31T03:16:39.119Z,97699.11
2018-05-31T03:19:05.385Z,97694.36
2018-05-31T03:21:31.673Z,97699.57
2018-05-31T03:26:30.798Z,97696.53
2018-05-31T03:28:57.135Z,97696.80
2018-05-31T03:31:23.382Z,97706.02
2018-05-31T03:33:49.662Z,97708.59
2018-05-31T03:36:15.966Z,97714.84
2018-05-31T03:38:42.218Z,97713.66
2018-05-31T03:41:08.537Z,97710.81
2018-05-31T03:43:34.787Z,97714.77
2018-05-31T03:46:01.045Z,97717.89
2018-05-31T03:48:27.319Z,97717.78
2018-05-31T03:50:53.559Z,97712.36
2018-05-31T03:53:19.802Z,97720.46
2018-05-31T03:55:46.075Z,97715.17
2018-05-31T03:58:12.330Z,97714.64
2018-05-31T04:00:38.586Z,97713.80
2018-05-31T04:03:04.859Z,97711.67
2018-05-31T04:05:31.120Z,97716.02
2018-05-31T04:07:57.367Z,97705.06
2018-05-31T04:10:23.650Z,97705.30
2018-05-31T04:12:49.904Z,97712.87
2018-05-31T04:15:16.151Z,97710.89
2018-05-31T04:17:43.151Z,97711.71
2018-05-31T04:20:09.410Z,97712.70
2018-05-31T04:22:35.654Z,97717.13
2018-05-31T04:25:01.948Z,97718.99
2018-05-31T04:27:28.195Z,97714.06
2018-05-31T04:29:54.455Z,97716.97
2018-05-31T04:32:20.771Z,97725.62
2018-05-31T04:34:47.046Z,97717.37
2018-05-31T04:37:13.296Z,97721.10
2018-05-31T04:39:39.551Z,97710.33
2018-05-31T04:42:05.816Z,97713.30
2018-05-31T04:44:32.054Z,97711.97
2018-05-31T04:46:58.334Z,97716.03
2018-05-31T04:49:24.598Z,97718.05
2018-05-31T04:51:50.830Z,97712.63
2018-05-31T04:54:17.107Z,97712.30
2018-05-31T04:56:43.362Z,97718.06
2018-05-31T04:59:09.594Z,97719.12
2018-05-31T05:01:35.867Z,97719.73
2018-05-31T05:04:02.155Z,97716.50
2018-05-31T05:06:28.416Z,97703.52
2018-05-31T05:08:54.754Z,97712.92
2018-05-31T05:11:20.999Z,97709.44
2018-05-31T05:13:47.253Z,97713.23
2018-05-31T05:16:13.523Z,97716.72
2018-05-31T05:18:39.781Z,97716.58
2018-05-31T05:21:06.046Z,97719.30
2018-05-31T05:23:32.318Z,97718.75
2018-05-31T05:25:58.550Z,97724.50
2018-05-31T05:28:24.798Z,97721.72
2018-05-31T05:30:51.130Z,97724.84
2018-05-31T05:33:17.429Z,97724.77
2018-05-31T05:35:43.618Z,97721.48
2018-05-31T05:38:10.935Z,97722.06
2018-05-31T05:40:37.208Z,97719.68
2018-05-31T05:43:03.451Z,97725.05
2018-05-31T05:45:29.730Z,97726.36
2018-05-31T05:47:56.040Z,97724.76
2018-05-31T05:50:22.271Z,97722.03
2018-05-31T05:52:48.543Z,97719.30
2018-05-31T05:55:14.766Z,97715.53
2018-05-31T05:57:40.991Z,97718.75
2018-05-31T06:00:07.275Z,97719.09
2018-05-31T06:02:33.499Z,97724.17
2018-05-31T06:04:59.731Z,97729.53
2018-05-31T06:07:25.999Z,97738.69
2018-05-31T06:09:52.253Z,97738.37
2018-05-31T06:12:18.491Z,97743.17
2018-05-31T06:14:44.753Z,97739.91
2018-05-31T06:17:10.980Z,97739.80
2018-05-31T06:19:37.235Z,97739.13
2018-05-31T06:22:03.544Z,97741.83
2018-05-31T06:24:29.812Z,97734.23
2018-05-31T06:26:56.086Z,97728.98
2018-05-31T06:29:22.347Z,97728.39
2018-05-31T06:31:48.586Z,97737.37
2018-05-31T06:34:14.856Z,97739.06
2018-05-31T06:36:41.111Z,97743.80
2018-05-31T06:39:07.361Z,97738.00
2018-05-31T06:41:33.584Z,97737.80
2018-05-31T06:43:59.842Z,97740.91
2018-05-31T06:46:26.071Z,97744.88
2018-05-31T06:48:52.286Z,97747.64
2018-05-31T06:51:18.534Z,97744.52
2018-05-31T06:53:44.791Z,97744.09
2018-05-31T06:56:11.015Z,97746.94
2018-05-31T06:58:37.298Z,97746.30
2018-05-31T07:01:04.669Z,97748.84
2018-05-31T07:03:30.886Z,97758.42
2018-05-31T07:05:57.142Z,97760.08
2018-05-31T07:08:23.367Z,97758.77
2018-05-31T07:10:49.598Z,97759.89
2018-05-31T07:13:15.851Z,97754.98
2018-05-31T07:15:42.088Z,97760.23
2018-05-31T07:18:08.321Z,97761.45
2018-05-31T07:20:34.582Z,97758.07
2018-05-31T07:23:00.814Z,97758.08
2018-05-31T07:25:27.041Z,97758.87
2018-05-31T07:27:53.342Z,97756.78
2018-05-31T07:30:19.576Z,97752.14
2018-05-31T07:32:45.800Z,97752.13
2018-05-31T07:35:12.055Z,97757.33
2018-05-31T07:37:38.279Z,97753.09
2018-05-31T07:40:04.519Z,97755.13
2018-05-31T07:42:30.776Z,97756.78
2018-05-31T07:44:57.056Z,97751.23
2018-05-31T07:47:23.286Z,97756.55
2018-05-31T07:49:49.542Z,97751.58
2018-05-31T07:52:15.758Z,97751.39
2018-05-31T07:54:41.978Z,97749.22
2018-05-31T07:57:08.231Z,97748.44
2018-05-31T07:59:34.458Z,97753.58
2018-05-31T08:02:00.685Z,97755.48
2018-05-31T08:04:26.947Z,97761.27
2018-05-31T08:06:53.186Z,97761.14
2018-05-31T08:09:19.402Z,97757.06
2018-05-31T08:11:45.661Z,97755.70
2018-05-31T08:14:11.887Z,97760.59
2018-05-31T08:16:38.110Z,97758.13
2018-05-31T08:19:04.365Z,97757.66
2018-05-31T08:21:30.594Z,97757.27
2018-05-31T08:23:56.843Z,97758.46
2018-05-31T08:26:23.154Z,97754.83
2018-05-31T08:28:49.392Z,97761.95
2018-05-31T08:31:15.633Z,97763.61
2018-05-31T08:33:41.890Z,97752.86
2018-05-31T08:36:08.134Z,97754.64
2018-05-31T08:38:34.399Z,97758.31
2018-05-31T08:41:00.676Z,97748.20
2018-05-31T08:43:26.924Z,97756.64
2018-05-31T08:45:53.162Z,97752.06
2018-05-31T08:48:19.418Z,97754.00
2018-05-31T08:50:45.642Z,97750.71
2018-05-31T08:53:11.878Z,97754.84
2018-05-31T08:55:38.135Z,97748.00
2018-05-31T08:58:04.367Z,97751.41
2018-05-31T09:00:30.602Z,97751.05
2018-05-31T09:02:56.847Z,97753.65
2018-05-31T09:05:23.083Z,97746.55
2018-05-31T09:07:49.335Z,97750.37
2018-05-31T09:10:15.604Z,97751.60
2018-05-31T09:12:41.831Z,97751.80
2018-05-31T09:15:08.096Z,97750.66
2018-05-31T09:17:34.346Z,97753.23
2018-05-31T09:20:00.578Z,97755.92
2018-05-31T09:22:26.823Z,97752.61
2018-05-31T09:24:53.074Z,97749.89
2018-05-31T09:27:19.302Z,97753.13
2018-05-31T09:29:45.546Z,97750.95
2018-05-31T09:32:11.798Z,97755.42
2018-05-31T09:34:38.039Z,97753.88
2018-05-31T09:37:04.283Z,97752.47
2018-05-31T09:39:30.535Z,97744.48
2018-05-31T09:41:56.754Z,97756.10
2018-05-31T09:44:22.971Z,97753.42
2018-05-31T09:46:49.222Z,97760.48
2018-05-31T09:49:15.470Z,97750.84
2018-05-31T09:51:41.703Z,97755.36
2018-05-31T09:54:07.987Z,97747.17
2018-05-31T09:56:34.207Z,97751.38
2018-05-31T09:59:00.427Z,97755.28
2018-05-31T10:01:26.694Z,97750.44
2018-05-31T10:03:52.945Z,97742.94
2018-05-31T10:06:19.175Z,97743.91
2018-05-31T10:08:45.435Z,97742.36
2018-05-31T10:11:11.663Z,97741.19
2018-05-31T10:13:37.887Z,97736.17
2018-05-31T10:16:04.160Z,97744.13
2018-05-31T10:18:30.406Z,97746.37
2018-05-31T10:20:56.659Z,97742.55
2018-05-31T10:23:22.906Z,97739.45
2018-05-31T10:25:49.128Z,97737.38
2018-05-31T10:28:15.367Z,97743.95
2018-05-31T10:30:48.888Z,97746.06
2018-05-31T10:33:15.104Z,97745.27
2018-05-31T10:35:41.381Z,97737.89
2018-05-31T10:38:07.655Z,97739.73
2018-05-31T10:40:33.895Z,97731.44
2018-05-31T10:43:00.106Z,97739.81
2018-05-31T10:45:26.350Z,97732.41
2018-05-31T10:47:52.584Z,97726.90
2018-05-31T10:50:18.807Z,97722.41
2018-05-31T10:52:45.103Z,97713.78
2018-05-31T10:55:11.331Z,97717.14
2018-05-31T10:57:37.583Z,97709.32
2018-05-31T11:00:03.887Z,97714.69
2018-05-31T11:02:30.116Z,97717.31
2018-05-31T11:04:56.378Z,97715.98
2018-05-31T11:07:22.635Z,97713.44
2018-05-31T11:09:48.872Z,97710.34
2018-05-31T11:12:15.134Z,97714.32
2018-05-31T11:14:41.399Z,97712.86
2018-05-31T11:17:07.631Z,97706.30
2018-05-31T11:19:33.878Z,97711.30
2018-05-31T11:22:00.184Z,97705.41
2018-05-31T11:26:52.468Z,97700.89
2018-05-31T11:29:18.804Z,97702.31
2018-05-31T11:31:44.995Z,97703.14
2018-05-31T11:34:11.228Z,97699.97
2018-05-31T11:36:37.470Z,97693.67
2018-05-31T11:39:03.774Z,97694.52
2018-05-31T11:41:30.010Z,97688.13
2018-05-31T11:43:56.278Z,97685.21
2018-05-31T11:46:22.525Z,97683.86
2018-05-31T11:48:48.748Z,97684.61
2018-05-31T11:51:15.019Z,97674.09
2018-05-31T11:53:41.266Z,97677.30
2018-05-31T11:56:07.526Z,97665.20
2018-05-31T11:58:33.791Z,97664.97
2018-05-31T12:01:00.010Z,97661.13
2018-05-31T12:03:26.283Z,97656.01
2018-05-31T12:05:52.549Z,97652.36
2018-05-31T12:08:18.809Z,97652.47
2018-05-31T12:10:45.075Z,97656.09
2018-05-31T12:13:11.319Z,97653.87
2018-05-31T12:15:37.563Z,97648.55
2018-05-31T12:18:03.822Z,97642.81
2018-05-31T12:20:30.075Z,97640.97
2018-05-31T12:22:56.311Z,97647.54
2018-05-31T12:25:22.550Z,97650.78
2018-05-31T12:27:48.810Z,97648.91
2018-05-31T12:30:15.027Z,97651.21
2018-05-31T12:32:41.250Z,97657.62
2018-05-31T12:35:07.537Z,97653.63
2018-05-31T12:37:33.771Z,97658.66
2018-05-31T12:40:00.003Z,97650.36
2018-05-31T12:42:26.276Z,97650.42
2018-05-31T12:44:52.516Z,97641.38
2018-05-31T12:47:18.738Z,97636.50
2018-05-31T12:49:45.006Z,97627.52
2018-05-31T12:52:11.237Z,97634.09
2018-05-31T12:54:37.454Z,97632.17
2018-05-31T12:57:03.719Z,97635.27
2018-05-31T12:59:29.939Z,97624.84
2018-05-31T13:01:56.162Z,97625.42
2018-05-31T13:04:22.411Z,97629.20
2018-05-31T13:06:48.649Z,97624.80
2018-05-31T13:09:14.863Z,97619.66
2018-05-31T13:11:41.142Z,97622.00
2018-05-31T13:14:07.403Z,97619.22
2018-05-31T13:16:33.662Z,97617.73
2018-05-31T13:18:59.922Z,97613.42
2018-05-31T13:21:26.180Z,97620.81
2018-05-31T13:23:52.422Z,97618.50
2018-05-31T13:26:18.683Z,97621.95
2018-05-31T13:28:44.911Z,97618.44
2018-05-31T13:31:11.163Z,97622.50
2018-05-31T13:33:37.432Z,97618.27
2018-05-31T13:36:03.698Z,97616.16
2018-05-31T13:38:29.917Z,97611.36
2018-05-31T13:40:56.180Z,97606.72
2018-05-31T13:43:22.407Z,97617.29
2018-05-31T13:45:48.630Z,97614.41
2018-05-31T13:48:14.903Z,97599.81
2018-05-31T13:50:41.131Z,97606.80
2018-05-31T13:53:07.354Z,97613.16
2018-05-31T13:55:33.614Z,97609.59
2018-05-31T13:57:59.866Z,97612.17
2018-05-31T14:00:26.103Z,97602.94
2018-05-31T14:02:52.351Z,97600.42
2018-05-31T14:05:18.574Z,97594.98
2018-05-31T14:07:44.818Z,97596.57
2018-05-31T14:10:11.067Z,97608.86
2018-05-31T14:12:37.356Z,97610.16
2018-05-31T14:15:03.603Z,97608.15
2018-05-31T14:17:29.862Z,97606.09
2018-05-31T14:19:56.107Z,97598.30
2018-05-31T14:22:22.367Z,97599.13
2018-05-31T14:24:48.622Z,97593.13
2018-05-31T14:27:14.835Z,97593.79
2018-05-31T14:29:41.059Z,97590.46
2018-05-31T14:32:07.322Z,97589.78
2018-05-31T14:34:33.535Z,97591.32
2018-05-31T14:36:59.774Z,97592.72
2018-05-31T14:39:26.026Z,97596.89
2018-05-31T14:41:52.250Z,97593.89
2018-05-31T14:44:18.483Z,97595.97
2018-05-31T14:46:44.754Z,97599.09
2018-05-31T14:49:11.009Z,97592.19
2018-05-31T14:51:37.267Z,97604.56
2018-05-31T14:54:03.550Z,97603.81
2018-05-31T14:56:29.774Z,97607.69
2018-05-31T14:58:56.002Z,97615.22
2018-05-31T15:01:22.257Z,97628.64
2018-05-31T15:03:48.480Z,97635.52
2018-05-31T15:06:14.703Z,97635.25
2018-05-31T15:08:40.964Z,97642.53
2018-05-31T15:11:07.216Z,97643.14
2018-05-31T15:13:33.451Z,97647.13
2018-05-31T15:15:59.999Z,97641.30
2018-05-31T15:18:26.298Z,97641.39
2018-05-31T15:20:52.523Z,97643.23
2018-05-31T15:23:19.888Z,97639.97
2018-05-31T15:25:46.449Z,97642.05
2018-05-31T15:28:12.714Z,97631.04
2018-05-31T15:30:39.007Z,97617.33
2018-05-31T15:33:05.375Z,97612.17
2018-05-31T15:35:31.610Z,97606.10
2018-05-31T15:37:57.858Z,97609.39
2018-05-31T15:40:24.083Z,97595.98
2018-05-31T15:42:50.355Z,97598.40
2018-05-31T15:45:16.619Z,97590.30
2018-05-31T15:47:42.849Z,97596.86
2018-05-31T15:50:09.066Z,97607.99
2018-05-31T15:52:35.330Z,97601.02
2018-05-31T15:55:01.573Z,97601.64
2018-05-31T15:57:27.813Z,97605.97
2018-05-31T15:59:54.075Z,97613.67
2018-05-31T16:02:20.310Z,97611.86
2018-05-31T16:04:46.558Z,97613.33
2018-05-31T16:07:12.831Z,97618.29
2018-05-31T16:09:39.102Z,97620.66
2018-05-31T16:12:05.338Z,97624.36
2018-05-31T16:14:31.607Z,97627.64
2018-05-31T16:16:57.891Z,97620.09
2018-05-31T16:19:24.126Z,97602.16
2018-05-31T16:21:50.393Z,97585.44
2018-05-31T16:24:16.631Z,97581.38
2018-05-31T16:26:42.898Z,97574.75
2018-05-31T16:29:09.166Z,97574.77
2018-05-31T16:31:35.423Z,97578.61
2018-05-31T16:34:01.687Z,97578.28
2018-05-31T16:36:34.952Z,97577.41
2018-05-31T16:39:01.187Z,97580.47
2018-05-31T16:41:27.430Z,97580.94
2018-05-31T16:43:53.746Z,97586.86
2018-05-31T16:46:20.005Z,97588.88
2018-05-31T16:48:46.243Z,97586.61
2018-05-31T16:51:12.515Z,97591.58
2018-05-31T16:53:38.759Z,97600.37
2018-05-31T16:56:04.999Z,97599.07
2018-05-31T16:58:31.277Z,97599.16
2018-05-31T17:00:57.506Z,97598.70
2018-05-31T17:03:23.795Z,97583.63
2018-05-31T17:05:50.085Z,97584.25
2018-05-31T17:08:16.328Z,97585.16
2018-05-31T17:10:42.583Z,97589.57
2018-05-31T17:13:08.847Z,97592.72
2018-05-31T17:15:35.160Z,97597.00
2018-05-31T17:18:01.439Z,97598.86
2018-05-31T17:20:27.719Z,97588.81
2018-05-31T17:22:53.955Z,97593.43
2018-05-31T17:25:20.231Z,97586.16
2018-05-31T17:27:46.491Z,97590.58
2018-05-31T17:30:12.723Z,97590.20
2018-05-31T17:32:38.955Z,97593.64
2018-05-31T17:35:05.220Z,97597.87
2018-05-31T17:37:31.499Z,97592.52
2018-05-31T17:39:57.727Z,97593.11
2018-05-31T17:42:24.020Z,97591.84
2018-05-31T17:44:50.264Z,97593.61
2018-05-31T17:47:16.491Z,97598.75
2018-05-31T17:49:42.784Z,97604.59
2018-05-31T17:52:09.041Z,97609.54
2018-05-31T17:54:35.280Z,97615.01
2018-05-31T17:57:01.580Z,97623.13
2018-05-31T17:59:27.850Z,97631.82
2018-05-31T18:01:54.083Z,97629.92
2018-05-31T18:04:20.379Z,97631.30
2018-05-31T18:06:46.613Z,97634.61
2018-05-31T18:09:12.855Z,97635.23
2018-05-31T18:11:39.151Z,97638.87
2018-05-31T18:14:05.418Z,97641.68
2018-05-31T18:16:31.819Z,97649.27
2018-05-31T18:18:58.139Z,97642.45
2018-05-31T18:21:24.448Z,97656.28
2018-05-31T18:23:50.687Z,97649.32
2018-05-31T18:26:16.967Z,97645.09
2018-05-31T18:28:43.207Z,97645.37
2018-05-31T18:31:09.445Z,97647.15
2018-05-31T18:33:35.722Z,97644.08
2018-05-31T18:36:01.987Z,97645.02
2018-05-31T18:38:28.226Z,97647.08
2018-05-31T18:40:54.490Z,97650.72
2018-05-31T18:43:20.722Z,97643.96
2018-05-31T18:45:46.971Z,97647.83
2018-05-31T18:48:13.247Z,97640.55
2018-05-31T18:50:39.480Z,97643.16
2018-05-31T18:53:05.724Z,97639.89
2018-05-31T18:55:32.048Z,97635.80
2018-05-31T18:57:58.278Z,97632.12
2018-05-31T19:00:24.567Z,97631.63
2018-05-31T19:02:50.825Z,97630.96
2018-05-31T19:05:17.070Z,97633.31
2018-05-31T19:07:43.319Z,97633.08
2018-05-31T19:10:09.615Z,97635.53
2018-05-31T19:12:41.758Z,97635.03
2018-05-31T19:15:07.990Z,97642.48
2018-05-31T19:17:34.281Z,97639.02
2018-05-31T19:20:00.512Z,97642.92
2018-05-31T19:22:26.743Z,97648.28
2018-05-31T19:24:59.086Z,97653.98
2018-05-31T19:27:25.332Z,97653.98
2018-05-31T19:29:51.610Z,97660.34
2018-05-31T19:32:17.980Z,97675.67
2018-05-31T19:34:44.192Z,97678.80
2018-05-31T19:37:12.487Z,97677.24
2018-05-31T19:39:38.812Z,97678.53
2018-05-31T19:42:05.092Z,97674.09
2018-05-31T19:44:37.248Z,97670.72
2018-05-31T19:47:04.619Z,97676.08
2018-05-31T19:49:30.872Z,97675.08
2018-05-31T19:52:03.076Z,97677.68
2018-05-31T19:54:29.384Z,97678.63
2018-05-31T19:56:55.620Z,97680.34
2018-05-31T19:59:34.755Z,97679.62
2018-05-31T20:02:07.012Z,97683.08
2018-05-31T20:04:33.271Z,97675.45
2018-05-31T20:06:59.531Z,97673.90
2018-05-31T20:09:25.789Z,97676.34
2018-05-31T20:11:52.285Z,97680.58
2018-05-31T20:14:18.543Z,97683.89
2018-05-31T20:16:44.798Z,97684.02
2018-05-31T20:19:11.029Z,97688.03
2018-05-31T20:21:37.299Z,97688.16
2018-05-31T20:24:03.668Z,97691.47
2018-05-31T20:26:30.215Z,97691.22
2018-05-31T20:28:56.991Z,97692.73
2018-05-31T20:31:23.346Z,97689.99
2018-05-31T20:33:49.596Z,97689.42
2018-05-31T20:36:16.859Z,97693.17
2018-05-31T20:38:43.103Z,97687.06
2018-05-31T20:41:09.345Z,97686.13
2018-05-31T20:43:35.615Z,97685.77
2018-05-31T20:46:01.862Z,97687.28
2018-05-31T20:48:28.095Z,97691.06
2018-05-31T20:50:54.411Z,97689.39
2018-05-31T20:53:20.694Z,97682.87
2018-05-31T20:55:47.012Z,97692.16
2018-05-31T20:58:13.287Z,97684.31
2018-05-31T21:00:39.500Z,97695.30
2018-05-31T21:03:05.733Z,97697.46
2018-05-31T21:05:32.078Z,97698.91
2018-05-31T21:07:58.314Z,97702.02
2018-05-31T21:10:24.643Z,97701.36
2018-05-31T21:12:50.936Z,97702.68
2018-05-31T21:15:17.186Z,97698.61
2018-05-31T21:17:43.403Z,97698.73
2018-05-31T21:20:09.766Z,97697.80
2018-05-31T21:22:35.989Z,97705.16
2018-05-31T21:25:02.396Z,97703.55
2018-05-31T21:27:28.646Z,97694.98
2018-05-31T21:29:55.223Z,97698.87
2018-05-31T21:32:21.478Z,97702.63
2018-05-31T21:34:47.738Z,97705.58
2018-05-31T21:37:13.967Z,97703.81
2018-05-31T21:39:40.206Z,97699.08
2018-05-31T21:42:06.477Z,97702.30
2018-05-31T21:44:32.716Z,97695.91
2018-05-31T21:46:59.164Z,97700.73
2018-05-31T21:49:25.592Z,97694.74
2018-05-31T21:51:51.957Z,97697.03
2018-05-31T21:54:18.934Z,97688.53
2018-05-31T21:56:45.470Z,97693.55
2018-05-31T21:59:11.830Z,97691.02
2018-05-31T22:01:38.091Z,97688.82
2018-05-31T22:04:04.410Z,97690.05
2018-05-31T22:06:30.655Z,97690.25
2018-05-31T22:08:56.903Z,97694.89
2018-05-31T22:11:23.371Z,97693.77
2018-05-31T22:13:49.604Z,97691.50
2018-05-31T22:16:15.863Z,97695.83
2018-05-31T22:18:42.138Z,97696.67
2018-05-31T22:21:08.414Z,97702.98
2018-05-31T22:23:34.646Z,97693.89
2018-05-31T22:26:00.914Z,97696.90
2018-05-31T22:28:27.162Z,97693.14
2018-05-31T22:30:53.391Z,97693.24
2018-05-31T22:33:19.667Z,97691.06
2018-05-31T22:35:45.930Z,97693.70
2018-05-31T22:38:12.172Z,97692.00
2018-05-31T22:40:38.543Z,97689.28
2018-05-31T22:43:04.784Z,97694.45
2018-05-31T22:45:31.027Z,97695.67
2018-05-31T22:47:57.407Z,97689.16
2018-05-31T22:50:23.651Z,97696.50
2018-05-31T22:52:49.887Z,97700.95
2018-05-31T22:55:16.160Z,97701.78
2018-05-31T22:57:42.400Z,97697.72
2018-05-31T23:00:08.683Z,97701.38
2018-05-31T23:02:34.967Z,97705.16
2018-05-31T23:05:01.203Z,97693.17
2018-05-31T23:07:28.486Z,97685.91
2018-05-31T23:09:54.782Z,97687.42
2018-05-31T23:12:21.021Z,97684.22
2018-05-31T23:14:47.265Z,97680.53
2018-05-31T23:17:13.544Z,97675.27
2018-05-31T23:19:39.917Z,97681.64
2018-05-31T23:22:06.163Z,97681.75
2018-05-31T23:24:32.451Z,97679.27
2018-05-31T23:26:59.404Z,97673.72
2018-05-31T23:29:25.661Z,97675.31
2018-05-31T23:31:51.938Z,97682.44
2018-05-31T23:34:18.191Z,97677.27
2018-05-31T23:36:44.439Z,97673.59
2018-05-31T23:39:10.756Z,97674.72
2018-05-31T23:41:37.030Z,97673.24
2018-05-31T23:44:03.312Z,97672.31
2018-05-31T23:46:29.599Z,97677.86
2018-05-31T23:48:55.841Z,97678.99
2018-05-31T23:51:22.122Z,97683.02
2018-05-31T23:53:48.391Z,97676.52
2018-05-31T23:56:14.640Z,97679.55
2018-05-31T23:58:40.897Z,97677.27
